sensor_id;sensor_type;location;lat;lon;timestamp;temperature;humidity
14749;DHT22;7466;53.574;9.976;2023-06-22T00:01:12;18.30;99.90
14749;DHT22;7466;53.574;9.976;2023-06-22T00:03:39;18.30;99.90
14749;DHT22;7466;53.574;9.976;2023-06-22T00:06:06;18.30;99.90
14749;DHT22;7466;53.574;9.976;2023-06-22T00:08:34;18.30;99.90
14749;DHT22;7466;53.574;9.976;2023-06-22T00:11:01;18.30;99.90
14749;DHT22;7466;53.574;9.976;2023-06-22T00:13:28;18.30;99.90
14749;DHT22;7466;53.574;9.976;2023-06-22T00:15:54;18.10;99.90
14749;DHT22;7466;53.574;9.976;2023-06-22T00:18:21;18.20;99.90
14749;DHT22;7466;53.574;9.976;2023-06-22T00:20:54;18.10;99.90
14749;DHT22;7466;53.574;9.976;2023-06-22T00:23:23;18.20;99.90
14749;DHT22;7466;53.574;9.976;2023-06-22T00:25:51;18.20;99.90
14749;DHT22;7466;53.574;9.976;2023-06-22T00:28:18;18.10;99.90
14749;DHT22;7466;53.574;9.976;2023-06-22T00:30:45;18.00;99.90
14749;DHT22;7466;53.574;9.976;2023-06-22T00:33:13;18.00;99.90
14749;DHT22;7466;53.574;9.976;2023-06-22T00:35:39;18.00;99.90
14749;DHT22;7466;53.574;9.976;2023-06-22T00:38:07;18.10;99.90
14749;DHT22;7466;53.574;9.976;2023-06-22T00:40:34;18.10;99.90
14749;DHT22;7466;53.574;9.976;2023-06-22T00:43:02;18.20;99.90
14749;DHT22;7466;53.574;9.976;2023-06-22T00:45:30;18.20;99.90
14749;DHT22;7466;53.574;9.976;2023-06-22T00:47:57;18.30;99.90
14749;DHT22;7466;53.574;9.976;2023-06-22T00:50:26;18.30;99.90
14749;DHT22;7466;53.574;9.976;2023-06-22T00:53:00;18.20;99.90
14749;DHT22;7466;53.574;9.976;2023-06-22T00:55:28;18.30;99.90
14749;DHT22;7466;53.574;9.976;2023-06-22T00:57:55;18.20;99.90
14749;DHT22;7466;53.574;9.976;2023-06-22T01:00:24;18.20;99.90
14749;DHT22;7466;53.574;9.976;2023-06-22T01:02:51;18.20;99.90
14749;DHT22;7466;53.574;9.976;2023-06-22T01:05:19;18.20;99.90
14749;DHT22;7466;53.574;9.976;2023-06-22T01:08:03;18.20;99.90
14749;DHT22;7466;53.574;9.976;2023-06-22T01:10:37;18.20;99.90
14749;DHT22;7466;53.574;9.976;2023-06-22T01:13:11;18.20;99.90
14749;DHT22;7466;53.574;9.976;2023-06-22T01:15:45;18.20;99.90
14749;DHT22;7466;53.574;9.976;2023-06-22T01:18:15;18.20;99.90
14749;DHT22;7466;53.574;9.976;2023-06-22T01:20:43;18.20;99.90
14749;DHT22;7466;53.574;9.976;2023-06-22T01:23:20;18.20;99.90
14749;DHT22;7466;53.574;9.976;2023-06-22T01:25:59;18.20;99.90
14749;DHT22;7466;53.574;9.976;2023-06-22T01:28:41;18.20;99.90
14749;DHT22;7466;53.574;9.976;2023-06-22T01:31:10;18.20;99.90
14749;DHT22;7466;53.574;9.976;2023-06-22T01:33:41;18.10;99.90
14749;DHT22;7466;53.574;9.976;2023-06-22T01:36:09;18.10;99.90
14749;DHT22;7466;53.574;9.976;2023-06-22T01:38:37;18.10;99.90
14749;DHT22;7466;53.574;9.976;2023-06-22T01:41:04;18.10;99.90
14749;DHT22;7466;53.574;9.976;2023-06-22T01:43:32;18.10;99.90
14749;DHT22;7466;53.574;9.976;2023-06-22T01:46:01;18.00;99.90
14749;DHT22;7466;53.574;9.976;2023-06-22T01:48:29;18.00;99.90
14749;DHT22;7466;53.574;9.976;2023-06-22T01:50:56;18.10;99.90
14749;DHT22;7466;53.574;9.976;2023-06-22T01:53:24;18.00;99.90
14749;DHT22;7466;53.574;9.976;2023-06-22T01:55:51;18.00;99.90
14749;DHT22;7466;53.574;9.976;2023-06-22T01:58:20;18.00;99.90
14749;DHT22;7466;53.574;9.976;2023-06-22T02:01:00;18.00;99.90
14749;DHT22;7466;53.574;9.976;2023-06-22T02:03:31;18.00;99.90
14749;DHT22;7466;53.574;9.976;2023-06-22T02:06:04;17.90;99.90
14749;DHT22;7466;53.574;9.976;2023-06-22T02:08:35;17.90;99.90
14749;DHT22;7466;53.574;9.976;2023-06-22T02:11:03;17.90;99.90
14749;DHT22;7466;53.574;9.976;2023-06-22T02:13:32;17.90;99.90
14749;DHT22;7466;53.574;9.976;2023-06-22T02:16:01;17.90;99.90
14749;DHT22;7466;53.574;9.976;2023-06-22T02:18:28;18.00;99.90
14749;DHT22;7466;53.574;9.976;2023-06-22T02:20:54;17.90;99.90
14749;DHT22;7466;53.574;9.976;2023-06-22T02:23:21;17.90;99.90
14749;DHT22;7466;53.574;9.976;2023-06-22T02:25:48;17.80;99.90
14749;DHT22;7466;53.574;9.976;2023-06-22T02:28:15;17.70;99.90
14749;DHT22;7466;53.574;9.976;2023-06-22T02:30:42;17.70;99.90
14749;DHT22;7466;53.574;9.976;2023-06-22T02:33:10;17.60;99.90
14749;DHT22;7466;53.574;9.976;2023-06-22T02:35:37;17.60;99.90
14749;DHT22;7466;53.574;9.976;2023-06-22T02:38:05;17.60;99.90
14749;DHT22;7466;53.574;9.976;2023-06-22T02:40:32;17.60;99.90
14749;DHT22;7466;53.574;9.976;2023-06-22T02:42:59;17.50;99.90
14749;DHT22;7466;53.574;9.976;2023-06-22T02:45:27;17.60;99.90
14749;DHT22;7466;53.574;9.976;2023-06-22T02:47:55;17.50;99.90
14749;DHT22;7466;53.574;9.976;2023-06-22T02:50:23;17.50;99.90
14749;DHT22;7466;53.574;9.976;2023-06-22T02:52:50;17.50;99.90
14749;DHT22;7466;53.574;9.976;2023-06-22T02:55:17;17.50;99.90
14749;DHT22;7466;53.574;9.976;2023-06-22T02:57:44;17.50;99.90
14749;DHT22;7466;53.574;9.976;2023-06-22T03:00:13;17.50;99.90
14749;DHT22;7466;53.574;9.976;2023-06-22T03:02:43;17.40;99.90
14749;DHT22;7466;53.574;9.976;2023-06-22T03:05:10;17.40;99.90
14749;DHT22;7466;53.574;9.976;2023-06-22T03:07:40;17.40;99.90
14749;DHT22;7466;53.574;9.976;2023-06-22T03:10:08;17.30;99.90
14749;DHT22;7466;53.574;9.976;2023-06-22T03:12:35;17.30;99.90
14749;DHT22;7466;53.574;9.976;2023-06-22T03:15:04;17.30;99.90
14749;DHT22;7466;53.574;9.976;2023-06-22T03:17:31;17.40;99.90
14749;DHT22;7466;53.574;9.976;2023-06-22T03:19:57;17.30;99.90
14749;DHT22;7466;53.574;9.976;2023-06-22T03:22:24;17.30;99.90
14749;DHT22;7466;53.574;9.976;2023-06-22T03:24:52;17.20;99.90
14749;DHT22;7466;53.574;9.976;2023-06-22T03:27:19;17.20;99.90
14749;DHT22;7466;53.574;9.976;2023-06-22T03:29:46;17.20;99.90
14749;DHT22;7466;53.574;9.976;2023-06-22T03:32:13;17.30;99.90
14749;DHT22;7466;53.574;9.976;2023-06-22T03:34:40;17.30;99.90
14749;DHT22;7466;53.574;9.976;2023-06-22T03:37:12;17.30;99.90
14749;DHT22;7466;53.574;9.976;2023-06-22T03:39:39;17.30;99.90
14749;DHT22;7466;53.574;9.976;2023-06-22T03:42:07;17.30;99.90
14749;DHT22;7466;53.574;9.976;2023-06-22T03:44:34;17.30;99.90
14749;DHT22;7466;53.574;9.976;2023-06-22T03:47:02;17.40;99.90
14749;DHT22;7466;53.574;9.976;2023-06-22T03:49:29;17.40;99.90
14749;DHT22;7466;53.574;9.976;2023-06-22T03:51:55;17.40;99.90
14749;DHT22;7466;53.574;9.976;2023-06-22T03:54:22;17.50;99.90
14749;DHT22;7466;53.574;9.976;2023-06-22T03:56:49;17.50;99.90
14749;DHT22;7466;53.574;9.976;2023-06-22T03:59:17;17.60;99.90
14749;DHT22;7466;53.574;9.976;2023-06-22T04:01:44;17.70;99.90
14749;DHT22;7466;53.574;9.976;2023-06-22T04:04:11;17.70;99.90
14749;DHT22;7466;53.574;9.976;2023-06-22T04:06:38;17.80;99.90
14749;DHT22;7466;53.574;9.976;2023-06-22T04:09:05;17.80;99.90
14749;DHT22;7466;53.574;9.976;2023-06-22T04:11:32;17.90;99.90
14749;DHT22;7466;53.574;9.976;2023-06-22T04:13:59;17.90;99.90
14749;DHT22;7466;53.574;9.976;2023-06-22T04:16:28;17.90;99.90
14749;DHT22;7466;53.574;9.976;2023-06-22T04:18:54;17.90;99.90
14749;DHT22;7466;53.574;9.976;2023-06-22T04:21:21;18.00;99.90
14749;DHT22;7466;53.574;9.976;2023-06-22T04:23:48;18.00;99.90
14749;DHT22;7466;53.574;9.976;2023-06-22T04:26:15;18.00;99.90
14749;DHT22;7466;53.574;9.976;2023-06-22T04:28:42;18.00;99.90
14749;DHT22;7466;53.574;9.976;2023-06-22T04:31:08;18.10;99.90
14749;DHT22;7466;53.574;9.976;2023-06-22T04:33:37;18.10;99.90
14749;DHT22;7466;53.574;9.976;2023-06-22T04:36:08;18.20;99.90
14749;DHT22;7466;53.574;9.976;2023-06-22T04:38:38;18.10;99.90
14749;DHT22;7466;53.574;9.976;2023-06-22T04:41:05;18.20;99.90
14749;DHT22;7466;53.574;9.976;2023-06-22T04:43:34;18.20;99.90
14749;DHT22;7466;53.574;9.976;2023-06-22T04:46:00;18.30;99.90
14749;DHT22;7466;53.574;9.976;2023-06-22T04:48:29;18.30;99.90
14749;DHT22;7466;53.574;9.976;2023-06-22T04:51:00;18.30;99.90
14749;DHT22;7466;53.574;9.976;2023-06-22T04:53:30;18.30;99.90
14749;DHT22;7466;53.574;9.976;2023-06-22T04:55:57;18.40;99.90
14749;DHT22;7466;53.574;9.976;2023-06-22T04:58:23;18.50;99.90
14749;DHT22;7466;53.574;9.976;2023-06-22T05:00:54;18.50;99.90
14749;DHT22;7466;53.574;9.976;2023-06-22T05:03:24;18.50;99.90
14749;DHT22;7466;53.574;9.976;2023-06-22T05:05:52;18.70;99.90
14749;DHT22;7466;53.574;9.976;2023-06-22T05:08:20;18.70;99.90
14749;DHT22;7466;53.574;9.976;2023-06-22T05:10:52;18.90;99.90
14749;DHT22;7466;53.574;9.976;2023-06-22T05:13:18;19.00;99.90
14749;DHT22;7466;53.574;9.976;2023-06-22T05:15:47;19.10;99.90
14749;DHT22;7466;53.574;9.976;2023-06-22T05:18:13;19.10;99.90
14749;DHT22;7466;53.574;9.976;2023-06-22T05:20:41;19.10;99.90
14749;DHT22;7466;53.574;9.976;2023-06-22T05:23:08;19.20;99.90
14749;DHT22;7466;53.574;9.976;2023-06-22T05:25:36;19.10;99.90
14749;DHT22;7466;53.574;9.976;2023-06-22T05:28:03;19.20;99.90
14749;DHT22;7466;53.574;9.976;2023-06-22T05:30:36;19.40;99.90
14749;DHT22;7466;53.574;9.976;2023-06-22T05:33:03;19.40;99.90
14749;DHT22;7466;53.574;9.976;2023-06-22T05:35:30;19.50;99.90
14749;DHT22;7466;53.574;9.976;2023-06-22T05:37:56;19.50;99.90
14749;DHT22;7466;53.574;9.976;2023-06-22T05:40:23;19.50;99.90
14749;DHT22;7466;53.574;9.976;2023-06-22T05:42:52;19.50;99.90
14749;DHT22;7466;53.574;9.976;2023-06-22T05:45:19;19.60;99.90
14749;DHT22;7466;53.574;9.976;2023-06-22T05:47:45;19.70;99.90
14749;DHT22;7466;53.574;9.976;2023-06-22T05:50:12;19.70;99.90
14749;DHT22;7466;53.574;9.976;2023-06-22T05:52:39;19.80;99.90
14749;DHT22;7466;53.574;9.976;2023-06-22T05:55:07;19.80;99.90
14749;DHT22;7466;53.574;9.976;2023-06-22T05:57:34;19.90;99.90
14749;DHT22;7466;53.574;9.976;2023-06-22T06:00:02;20.00;99.90
14749;DHT22;7466;53.574;9.976;2023-06-22T06:02:32;20.10;99.90
14749;DHT22;7466;53.574;9.976;2023-06-22T06:04:59;20.10;99.90
14749;DHT22;7466;53.574;9.976;2023-06-22T06:07:28;20.20;99.90
14749;DHT22;7466;53.574;9.976;2023-06-22T06:09:55;20.40;99.90
14749;DHT22;7466;53.574;9.976;2023-06-22T06:12:22;20.50;99.90
14749;DHT22;7466;53.574;9.976;2023-06-22T06:14:49;20.60;99.90
14749;DHT22;7466;53.574;9.976;2023-06-22T06:17:23;20.70;99.90
14749;DHT22;7466;53.574;9.976;2023-06-22T06:19:50;20.90;99.90
14749;DHT22;7466;53.574;9.976;2023-06-22T06:22:17;21.00;99.90
14749;DHT22;7466;53.574;9.976;2023-06-22T06:24:44;21.10;99.90
14749;DHT22;7466;53.574;9.976;2023-06-22T06:27:11;21.10;99.90
14749;DHT22;7466;53.574;9.976;2023-06-22T06:29:37;21.20;99.90
14749;DHT22;7466;53.574;9.976;2023-06-22T06:32:04;21.50;99.90
14749;DHT22;7466;53.574;9.976;2023-06-22T06:34:33;21.70;99.90
14749;DHT22;7466;53.574;9.976;2023-06-22T06:37:00;21.50;99.90
14749;DHT22;7466;53.574;9.976;2023-06-22T06:39:27;21.50;99.90
14749;DHT22;7466;53.574;9.976;2023-06-22T06:41:54;21.50;99.90
14749;DHT22;7466;53.574;9.976;2023-06-22T06:44:20;21.40;99.90
14749;DHT22;7466;53.574;9.976;2023-06-22T06:46:47;21.50;99.90
14749;DHT22;7466;53.574;9.976;2023-06-22T06:49:14;21.40;99.90
14749;DHT22;7466;53.574;9.976;2023-06-22T06:51:43;21.40;99.90
14749;DHT22;7466;53.574;9.976;2023-06-22T06:54:09;21.50;99.90
14749;DHT22;7466;53.574;9.976;2023-06-22T06:56:36;21.70;99.90
14749;DHT22;7466;53.574;9.976;2023-06-22T06:59:05;21.70;99.90
14749;DHT22;7466;53.574;9.976;2023-06-22T07:01:34;21.60;99.90
14749;DHT22;7466;53.574;9.976;2023-06-22T07:04:01;21.50;99.90
14749;DHT22;7466;53.574;9.976;2023-06-22T07:06:28;21.70;99.90
14749;DHT22;7466;53.574;9.976;2023-06-22T07:08:59;21.80;99.90
14749;DHT22;7466;53.574;9.976;2023-06-22T07:11:26;22.00;99.90
14749;DHT22;7466;53.574;9.976;2023-06-22T07:13:53;22.00;99.90
14749;DHT22;7466;53.574;9.976;2023-06-22T07:16:19;22.10;99.90
14749;DHT22;7466;53.574;9.976;2023-06-22T07:18:46;22.10;99.90
14749;DHT22;7466;53.574;9.976;2023-06-22T07:21:13;22.40;99.90
14749;DHT22;7466;53.574;9.976;2023-06-22T07:23:40;22.50;99.90
14749;DHT22;7466;53.574;9.976;2023-06-22T07:26:08;22.50;99.90
14749;DHT22;7466;53.574;9.976;2023-06-22T07:28:35;22.70;99.90
14749;DHT22;7466;53.574;9.976;2023-06-22T07:31:03;23.00;99.90
14749;DHT22;7466;53.574;9.976;2023-06-22T07:33:30;23.00;99.90
14749;DHT22;7466;53.574;9.976;2023-06-22T07:35:57;23.10;99.90
14749;DHT22;7466;53.574;9.976;2023-06-22T07:38:24;22.80;99.90
14749;DHT22;7466;53.574;9.976;2023-06-22T07:40:51;22.70;99.90
14749;DHT22;7466;53.574;9.976;2023-06-22T07:43:20;22.90;99.90
14749;DHT22;7466;53.574;9.976;2023-06-22T07:45:48;23.20;99.90
14749;DHT22;7466;53.574;9.976;2023-06-22T07:48:17;23.30;99.90
14749;DHT22;7466;53.574;9.976;2023-06-22T07:50:44;23.40;99.90
14749;DHT22;7466;53.574;9.976;2023-06-22T07:53:11;23.70;99.90
14749;DHT22;7466;53.574;9.976;2023-06-22T07:55:38;23.60;99.90
14749;DHT22;7466;53.574;9.976;2023-06-22T07:58:05;23.70;99.90
14749;DHT22;7466;53.574;9.976;2023-06-22T08:00:33;23.80;99.90
14749;DHT22;7466;53.574;9.976;2023-06-22T08:03:00;23.80;99.90
14749;DHT22;7466;53.574;9.976;2023-06-22T08:05:29;23.70;99.90
14749;DHT22;7466;53.574;9.976;2023-06-22T08:07:56;23.60;99.90
14749;DHT22;7466;53.574;9.976;2023-06-22T08:10:23;23.60;99.90
14749;DHT22;7466;53.574;9.976;2023-06-22T08:12:50;23.80;99.90
14749;DHT22;7466;53.574;9.976;2023-06-22T08:15:17;24.10;99.90
14749;DHT22;7466;53.574;9.976;2023-06-22T08:17:45;24.10;99.90
14749;DHT22;7466;53.574;9.976;2023-06-22T08:20:12;24.00;99.90
14749;DHT22;7466;53.574;9.976;2023-06-22T08:22:39;24.00;99.90
14749;DHT22;7466;53.574;9.976;2023-06-22T08:25:07;24.00;99.90
14749;DHT22;7466;53.574;9.976;2023-06-22T08:27:34;24.10;99.90
14749;DHT22;7466;53.574;9.976;2023-06-22T08:30:01;24.20;99.90
14749;DHT22;7466;53.574;9.976;2023-06-22T08:32:28;24.00;99.90
14749;DHT22;7466;53.574;9.976;2023-06-22T08:34:57;24.00;99.90
14749;DHT22;7466;53.574;9.976;2023-06-22T08:37:24;24.20;99.90
14749;DHT22;7466;53.574;9.976;2023-06-22T08:39:55;23.90;99.90
14749;DHT22;7466;53.574;9.976;2023-06-22T08:42:22;24.10;99.90
14749;DHT22;7466;53.574;9.976;2023-06-22T08:44:51;24.30;99.90
14749;DHT22;7466;53.574;9.976;2023-06-22T08:47:18;24.40;99.90
14749;DHT22;7466;53.574;9.976;2023-06-22T08:49:45;24.80;99.90
14749;DHT22;7466;53.574;9.976;2023-06-22T08:52:14;24.80;99.90
14749;DHT22;7466;53.574;9.976;2023-06-22T08:54:41;25.40;99.90
14749;DHT22;7466;53.574;9.976;2023-06-22T08:57:08;25.50;99.90
14749;DHT22;7466;53.574;9.976;2023-06-22T08:59:34;25.40;99.90
14749;DHT22;7466;53.574;9.976;2023-06-22T09:02:01;25.70;99.90
14749;DHT22;7466;53.574;9.976;2023-06-22T09:04:28;25.50;99.90
14749;DHT22;7466;53.574;9.976;2023-06-22T09:06:55;25.60;99.90
14749;DHT22;7466;53.574;9.976;2023-06-22T09:09:24;25.90;99.90
14749;DHT22;7466;53.574;9.976;2023-06-22T09:11:50;25.70;99.90
14749;DHT22;7466;53.574;9.976;2023-06-22T09:14:17;25.70;99.90
14749;DHT22;7466;53.574;9.976;2023-06-22T09:16:44;25.80;99.90
14749;DHT22;7466;53.574;9.976;2023-06-22T09:19:11;26.00;99.90
14749;DHT22;7466;53.574;9.976;2023-06-22T09:21:38;25.90;99.90
14749;DHT22;7466;53.574;9.976;2023-06-22T09:24:06;25.80;99.90
14749;DHT22;7466;53.574;9.976;2023-06-22T09:26:35;26.00;99.90
14749;DHT22;7466;53.574;9.976;2023-06-22T09:29:04;25.80;99.90
14749;DHT22;7466;53.574;9.976;2023-06-22T09:31:31;25.90;99.90
14749;DHT22;7466;53.574;9.976;2023-06-22T09:33:58;26.10;99.90
14749;DHT22;7466;53.574;9.976;2023-06-22T09:36:25;26.20;99.90
14749;DHT22;7466;53.574;9.976;2023-06-22T09:38:51;26.40;99.90
14749;DHT22;7466;53.574;9.976;2023-06-22T09:41:21;26.40;99.90
14749;DHT22;7466;53.574;9.976;2023-06-22T09:43:49;26.40;99.90
14749;DHT22;7466;53.574;9.976;2023-06-22T09:46:17;26.70;99.90
14749;DHT22;7466;53.574;9.976;2023-06-22T09:48:43;26.30;99.90
14749;DHT22;7466;53.574;9.976;2023-06-22T09:51:11;26.50;99.90
14749;DHT22;7466;53.574;9.976;2023-06-22T09:53:37;26.70;99.90
14749;DHT22;7466;53.574;9.976;2023-06-22T09:56:04;27.00;99.90
14749;DHT22;7466;53.574;9.976;2023-06-22T09:58:31;27.30;99.90
14749;DHT22;7466;53.574;9.976;2023-06-22T10:01:00;27.20;99.90
14749;DHT22;7466;53.574;9.976;2023-06-22T10:03:27;27.10;99.90
14749;DHT22;7466;53.574;9.976;2023-06-22T10:05:53;27.10;99.90
14749;DHT22;7466;53.574;9.976;2023-06-22T10:08:21;27.40;99.90
14749;DHT22;7466;53.574;9.976;2023-06-22T10:10:47;26.90;99.90
14749;DHT22;7466;53.574;9.976;2023-06-22T10:13:14;27.20;99.90
14749;DHT22;7466;53.574;9.976;2023-06-22T10:15:41;27.00;99.90
14749;DHT22;7466;53.574;9.976;2023-06-22T10:18:12;27.00;99.90
14749;DHT22;7466;53.574;9.976;2023-06-22T10:20:39;27.40;99.90
14749;DHT22;7466;53.574;9.976;2023-06-22T10:23:06;27.10;99.90
14749;DHT22;7466;53.574;9.976;2023-06-22T10:25:33;26.90;99.90
14749;DHT22;7466;53.574;9.976;2023-06-22T10:27:59;27.50;99.90
14749;DHT22;7466;53.574;9.976;2023-06-22T10:30:26;28.00;99.90
14749;DHT22;7466;53.574;9.976;2023-06-22T10:32:54;28.10;99.90
14749;DHT22;7466;53.574;9.976;2023-06-22T10:35:22;28.30;99.90
14749;DHT22;7466;53.574;9.976;2023-06-22T10:37:49;28.50;99.90
14749;DHT22;7466;53.574;9.976;2023-06-22T10:40:17;28.00;99.20
14749;DHT22;7466;53.574;9.976;2023-06-22T10:42:44;27.50;99.90
14749;DHT22;7466;53.574;9.976;2023-06-22T10:45:11;27.80;99.90
14749;DHT22;7466;53.574;9.976;2023-06-22T10:47:39;28.20;99.90
14749;DHT22;7466;53.574;9.976;2023-06-22T10:50:08;28.00;99.90
14749;DHT22;7466;53.574;9.976;2023-06-22T10:52:36;28.60;99.90
14749;DHT22;7466;53.574;9.976;2023-06-22T10:55:03;27.40;99.90
14749;DHT22;7466;53.574;9.976;2023-06-22T10:57:30;27.70;99.90
14749;DHT22;7466;53.574;9.976;2023-06-22T10:59:57;27.90;99.90
14749;DHT22;7466;53.574;9.976;2023-06-22T11:02:24;28.00;99.90
14749;DHT22;7466;53.574;9.976;2023-06-22T11:04:53;28.30;99.90
14749;DHT22;7466;53.574;9.976;2023-06-22T11:07:20;28.40;99.90
14749;DHT22;7466;53.574;9.976;2023-06-22T11:09:48;28.30;99.90
14749;DHT22;7466;53.574;9.976;2023-06-22T11:12:15;28.70;99.90
14749;DHT22;7466;53.574;9.976;2023-06-22T11:14:42;28.80;99.90
14749;DHT22;7466;53.574;9.976;2023-06-22T11:17:08;28.90;98.00
14749;DHT22;7466;53.574;9.976;2023-06-22T11:19:35;29.10;98.80
14749;DHT22;7466;53.574;9.976;2023-06-22T11:22:02;29.50;97.70
14749;DHT22;7466;53.574;9.976;2023-06-22T11:24:29;29.50;97.10
14749;DHT22;7466;53.574;9.976;2023-06-22T11:26:57;29.40;96.10
14749;DHT22;7466;53.574;9.976;2023-06-22T11:29:24;29.70;94.60
14749;DHT22;7466;53.574;9.976;2023-06-22T11:31:50;29.60;94.70
14749;DHT22;7466;53.574;9.976;2023-06-22T11:34:17;29.10;94.60
14749;DHT22;7466;53.574;9.976;2023-06-22T11:36:44;29.20;95.80
14749;DHT22;7466;53.574;9.976;2023-06-22T11:39:12;28.70;98.50
14749;DHT22;7466;53.574;9.976;2023-06-22T11:41:40;28.20;99.90
14749;DHT22;7466;53.574;9.976;2023-06-22T11:44:08;28.10;99.90
14749;DHT22;7466;53.574;9.976;2023-06-22T11:46:35;27.90;99.90
14749;DHT22;7466;53.574;9.976;2023-06-22T11:49:03;28.00;99.90
14749;DHT22;7466;53.574;9.976;2023-06-22T11:51:30;28.30;99.90
14749;DHT22;7466;53.574;9.976;2023-06-22T11:53:57;28.50;99.90
14749;DHT22;7466;53.574;9.976;2023-06-22T11:56:23;28.40;99.90
14749;DHT22;7466;53.574;9.976;2023-06-22T11:58:50;28.20;99.90
14749;DHT22;7466;53.574;9.976;2023-06-22T12:01:19;28.00;99.90
14749;DHT22;7466;53.574;9.976;2023-06-22T12:03:46;27.90;99.90
14749;DHT22;7466;53.574;9.976;2023-06-22T12:06:13;28.00;99.90
14749;DHT22;7466;53.574;9.976;2023-06-22T12:08:40;28.30;99.90
14749;DHT22;7466;53.574;9.976;2023-06-22T12:11:08;28.50;99.90
14749;DHT22;7466;53.574;9.976;2023-06-22T12:13:35;28.60;99.90
14749;DHT22;7466;53.574;9.976;2023-06-22T12:16:01;28.30;99.90
14749;DHT22;7466;53.574;9.976;2023-06-22T12:18:30;28.20;99.90
14749;DHT22;7466;53.574;9.976;2023-06-22T12:20:57;27.80;99.90
14749;DHT22;7466;53.574;9.976;2023-06-22T12:23:24;28.00;99.90
14749;DHT22;7466;53.574;9.976;2023-06-22T12:25:51;28.10;99.90
14749;DHT22;7466;53.574;9.976;2023-06-22T12:28:18;28.10;99.90
14749;DHT22;7466;53.574;9.976;2023-06-22T12:30:44;28.30;99.90
14749;DHT22;7466;53.574;9.976;2023-06-22T12:33:11;28.00;99.90
14749;DHT22;7466;53.574;9.976;2023-06-22T12:35:43;28.30;99.90
14749;DHT22;7466;53.574;9.976;2023-06-22T12:38:11;28.60;99.90
14749;DHT22;7466;53.574;9.976;2023-06-22T12:40:38;28.30;99.90
14749;DHT22;7466;53.574;9.976;2023-06-22T12:43:05;27.80;99.90
14749;DHT22;7466;53.574;9.976;2023-06-22T12:45:33;28.20;99.90
14749;DHT22;7466;53.574;9.976;2023-06-22T12:48:02;28.00;99.90
14749;DHT22;7466;53.574;9.976;2023-06-22T12:50:29;28.30;99.90
14749;DHT22;7466;53.574;9.976;2023-06-22T12:52:57;28.40;99.90
14749;DHT22;7466;53.574;9.976;2023-06-22T12:55:24;28.10;99.90
14749;DHT22;7466;53.574;9.976;2023-06-22T12:57:51;28.10;99.90
14749;DHT22;7466;53.574;9.976;2023-06-22T13:00:18;28.50;99.90
14749;DHT22;7466;53.574;9.976;2023-06-22T13:02:45;28.50;99.90
14749;DHT22;7466;53.574;9.976;2023-06-22T13:05:12;28.80;99.90
14749;DHT22;7466;53.574;9.976;2023-06-22T13:07:38;29.70;98.60
14749;DHT22;7466;53.574;9.976;2023-06-22T13:10:08;30.50;96.40
14749;DHT22;7466;53.574;9.976;2023-06-22T13:12:34;31.70;91.90
14749;DHT22;7466;53.574;9.976;2023-06-22T13:15:02;31.80;88.90
14749;DHT22;7466;53.574;9.976;2023-06-22T13:17:29;31.70;87.10
14749;DHT22;7466;53.574;9.976;2023-06-22T13:19:56;31.40;85.90
14749;DHT22;7466;53.574;9.976;2023-06-22T13:22:27;31.40;87.50
14749;DHT22;7466;53.574;9.976;2023-06-22T13:24:54;31.30;90.30
14749;DHT22;7466;53.574;9.976;2023-06-22T13:27:22;31.10;90.10
14749;DHT22;7466;53.574;9.976;2023-06-22T13:29:50;30.90;89.10
14749;DHT22;7466;53.574;9.976;2023-06-22T13:32:17;30.70;90.30
14749;DHT22;7466;53.574;9.976;2023-06-22T13:34:43;30.20;93.00
14749;DHT22;7466;53.574;9.976;2023-06-22T13:37:10;29.30;95.50
14749;DHT22;7466;53.574;9.976;2023-06-22T13:39:37;29.50;95.90
14749;DHT22;7466;53.574;9.976;2023-06-22T13:42:05;28.90;99.80
14749;DHT22;7466;53.574;9.976;2023-06-22T13:44:33;28.70;99.70
14749;DHT22;7466;53.574;9.976;2023-06-22T13:47:00;28.70;99.90
14749;DHT22;7466;53.574;9.976;2023-06-22T13:49:27;28.40;99.90
14749;DHT22;7466;53.574;9.976;2023-06-22T13:51:55;28.30;99.90
14749;DHT22;7466;53.574;9.976;2023-06-22T13:54:21;28.30;99.90
14749;DHT22;7466;53.574;9.976;2023-06-22T13:56:48;28.40;99.90
14749;DHT22;7466;53.574;9.976;2023-06-22T13:59:15;28.90;99.90
14749;DHT22;7466;53.574;9.976;2023-06-22T14:01:43;29.50;99.30
14749;DHT22;7466;53.574;9.976;2023-06-22T14:04:10;28.80;99.90
14749;DHT22;7466;53.574;9.976;2023-06-22T14:06:38;28.60;99.90
14749;DHT22;7466;53.574;9.976;2023-06-22T14:09:05;28.40;99.90
14749;DHT22;7466;53.574;9.976;2023-06-22T14:11:35;28.80;99.90
14749;DHT22;7466;53.574;9.976;2023-06-22T14:14:02;28.50;99.90
14749;DHT22;7466;53.574;9.976;2023-06-22T14:16:29;27.80;99.90
14749;DHT22;7466;53.574;9.976;2023-06-22T14:18:57;27.40;99.90
14749;DHT22;7466;53.574;9.976;2023-06-22T14:21:25;27.50;99.90
14749;DHT22;7466;53.574;9.976;2023-06-22T14:23:52;27.70;99.90
14749;DHT22;7466;53.574;9.976;2023-06-22T14:26:19;27.80;99.90
14749;DHT22;7466;53.574;9.976;2023-06-22T14:28:45;27.50;99.90
14749;DHT22;7466;53.574;9.976;2023-06-22T14:31:14;27.40;99.90
14749;DHT22;7466;53.574;9.976;2023-06-22T14:33:41;27.30;99.90
14749;DHT22;7466;53.574;9.976;2023-06-22T14:36:10;27.30;99.90
14749;DHT22;7466;53.574;9.976;2023-06-22T14:38:37;27.30;99.90
14749;DHT22;7466;53.574;9.976;2023-06-22T14:41:04;26.90;99.90
14749;DHT22;7466;53.574;9.976;2023-06-22T14:43:31;26.80;99.90
14749;DHT22;7466;53.574;9.976;2023-06-22T14:45:58;26.50;99.90
14749;DHT22;7466;53.574;9.976;2023-06-22T14:48:24;26.40;99.90
14749;DHT22;7466;53.574;9.976;2023-06-22T14:50:51;26.30;99.90
14749;DHT22;7466;53.574;9.976;2023-06-22T14:53:20;26.30;99.90
14749;DHT22;7466;53.574;9.976;2023-06-22T14:55:47;26.30;99.90
14749;DHT22;7466;53.574;9.976;2023-06-22T14:58:14;26.20;99.90
14749;DHT22;7466;53.574;9.976;2023-06-22T15:00:41;26.20;99.90
14749;DHT22;7466;53.574;9.976;2023-06-22T15:03:07;26.00;99.90
14749;DHT22;7466;53.574;9.976;2023-06-22T15:05:36;26.10;99.90
14749;DHT22;7466;53.574;9.976;2023-06-22T15:08:03;26.00;99.90
14749;DHT22;7466;53.574;9.976;2023-06-22T15:10:31;25.90;99.90
14749;DHT22;7466;53.574;9.976;2023-06-22T15:12:58;26.00;99.90
14749;DHT22;7466;53.574;9.976;2023-06-22T15:15:25;26.00;99.90
14749;DHT22;7466;53.574;9.976;2023-06-22T15:17:52;26.20;99.90
14749;DHT22;7466;53.574;9.976;2023-06-22T15:20:19;26.00;99.90
14749;DHT22;7466;53.574;9.976;2023-06-22T15:22:45;26.00;99.90
14749;DHT22;7466;53.574;9.976;2023-06-22T15:25:12;25.90;99.90
14749;DHT22;7466;53.574;9.976;2023-06-22T15:27:40;25.80;99.90
14749;DHT22;7466;53.574;9.976;2023-06-22T15:30:08;25.80;99.90
14749;DHT22;7466;53.574;9.976;2023-06-22T15:32:35;25.60;99.90
14749;DHT22;7466;53.574;9.976;2023-06-22T15:35:02;25.60;99.90
14749;DHT22;7466;53.574;9.976;2023-06-22T15:37:29;25.70;99.90
14749;DHT22;7466;53.574;9.976;2023-06-22T15:39:56;25.70;99.90
14749;DHT22;7466;53.574;9.976;2023-06-22T15:42:24;25.60;99.90
14749;DHT22;7466;53.574;9.976;2023-06-22T15:44:52;25.60;99.90
14749;DHT22;7466;53.574;9.976;2023-06-22T15:47:19;25.60;99.90